»·PEaware :: N1CC KHQM-S23

N1CC :: KHQM-S23

FLIGHT INFORMATION

Flight Status: Arrived
Operator: Privately registered:
United States
More flights under this callsign
Pilot: Charles C. (26995)
Aircraft: SOCATA TBM-900
(TBM9)
More flights by this aircraft type
Origin: KHQM Bowerman
United States
Destination: S23 Ione Mun
United States
More flights between these airports :: More routes between these airports
Route: +HQM J70 SEA J505 ONSET
File this flight plan on PilotEdge
Remarks:
Altitude:
(Current/Filed)
25,000ft
Speed:
(Current/Filed)
275kts
Departed: 18-Sep-20 11:38 AM
Arrived: 18-Sep-20 12:58 PM
Distance/Time
Traveled:
283nm/1:20
Distance/Time
To Go:
Arrived

Flight Plot

Page will automatically refresh every two minutes.

Flight plan parsing failed; only flown route is shown


Map Options




Map Legend


Flown Route
Filed Route
Departure Airport
Arrival Airport
Navaid (VOR, NDB)
Fix

Horizontal Profiles

Position Reports

Time Latitude Longitude Heading Altitude Ground
Speed
18-Sep-20 11:01 46.974037 -123.928224 195 15ft 0kts
18-Sep-20 11:01 46.974037 -123.928224 195 15ft 0kts
18-Sep-20 11:03 46.974037 -123.928224 195 15ft 0kts
18-Sep-20 11:04 46.974037 -123.928224 195 15ft 0kts
18-Sep-20 11:05 46.974037 -123.928224 195 15ft 0kts
18-Sep-20 11:05 46.974037 -123.928224 195 15ft 0kts
18-Sep-20 11:07 46.974037 -123.928224 195 15ft 0kts
18-Sep-20 11:08 46.974037 -123.928224 195 15ft 0kts
18-Sep-20 11:08 46.974037 -123.928224 195 15ft 0kts
18-Sep-20 11:09 46.974037 -123.928224 195 15ft 0kts
18-Sep-20 11:10 46.974037 -123.928224 195 15ft 0kts
18-Sep-20 11:11 46.974037 -123.928224 195 15ft 0kts
18-Sep-20 11:12 46.974037 -123.928224 195 15ft 0kts
18-Sep-20 11:13 46.974037 -123.928224 195 15ft 0kts
18-Sep-20 11:14 46.974037 -123.928224 195 15ft 0kts
18-Sep-20 11:15 46.974037 -123.928224 195 15ft 0kts
18-Sep-20 11:16 46.974037 -123.928224 195 15ft 0kts
18-Sep-20 11:17 46.974037 -123.928224 195 15ft 0kts
18-Sep-20 11:18 46.974037 -123.928224 195 15ft 0kts
18-Sep-20 11:19 46.974037 -123.928224 195 15ft 0kts
18-Sep-20 11:20 46.974037 -123.928224 195 15ft 0kts
18-Sep-20 11:21 46.974037 -123.928224 195 15ft 0kts
18-Sep-20 11:22 46.974037 -123.928224 195 15ft 0kts
18-Sep-20 11:23 46.974037 -123.928224 195 15ft 0kts
18-Sep-20 11:24 46.974037 -123.928224 195 15ft 0kts
18-Sep-20 11:25 46.974037 -123.928224 195 15ft 0kts
18-Sep-20 11:26 46.974037 -123.928224 195 15ft 0kts
18-Sep-20 11:27 46.974037 -123.928224 195 15ft 0kts
18-Sep-20 11:28 46.974037 -123.928224 195 15ft 0kts
18-Sep-20 11:29 46.974037 -123.928224 195 15ft 0kts
18-Sep-20 11:30 46.974037 -123.928224 195 15ft 0kts
18-Sep-20 11:31 46.973919 -123.928241 157 15ft 1kts
18-Sep-20 11:32 46.973604 -123.928118 167 16ft 0kts
18-Sep-20 11:33 46.973604 -123.928117 167 16ft 0kts
18-Sep-20 11:34 46.973604 -123.928117 167 16ft 0kts
18-Sep-20 11:35 46.973604 -123.928117 167 16ft 0kts
18-Sep-20 11:36 46.972225 -123.928027 258 17ft 0kts
18-Sep-20 11:37 46.971502 -123.933982 260 18ft 92kts
18-Sep-20 11:38 46.958995 -123.973189 256 1685ft 119kts
18-Sep-20 11:39 46.964731 -124.035531 275 2956ft 174kts
18-Sep-20 11:40 46.961799 -124.114030 282 3818ft 208kts
18-Sep-20 11:41 46.940067 -124.178001 238 5576ft 184kts
18-Sep-20 11:42 46.913010 -124.154599 57 7202ft 173kts
18-Sep-20 11:43 46.951747 -124.108074 37 8575ft 187kts
18-Sep-20 11:44 46.976817 -124.040979 67 9962ft 189kts
18-Sep-20 11:45 46.997282 -123.966527 67 11594ft 197kts
18-Sep-20 11:46 47.016572 -123.895982 67 13483ft 186kts
18-Sep-20 11:47 47.036216 -123.823931 67 14903ft 194kts
18-Sep-20 11:48 47.056251 -123.750225 67 16298ft 195kts
18-Sep-20 11:49 47.076261 -123.676381 67 17697ft 200kts
18-Sep-20 11:50 47.097769 -123.596729 67 19157ft 216kts
18-Sep-20 11:51 47.120158 -123.513555 68 20569ft 220kts
18-Sep-20 11:52 47.142721 -123.429427 68 21967ft 223kts
18-Sep-20 11:53 47.165822 -123.342963 68 23382ft 230kts
18-Sep-20 11:54 47.189357 -123.254535 68 24701ft 235kts
18-Sep-20 11:55 47.214807 -123.158525 68 24990ft 272kts
18-Sep-20 11:56 47.243379 -123.050324 68 24982ft 294kts
18-Sep-20 11:57 47.273379 -122.936154 68 24987ft 301kts
18-Sep-20 11:58 47.303424 -122.821236 68 24990ft 300kts
18-Sep-20 11:59 47.333299 -122.706386 68 24990ft 300kts
18-Sep-20 12:00 47.363076 -122.591346 68 24990ft 300kts
18-Sep-20 12:01 47.392332 -122.477756 68 24989ft 300kts
18-Sep-20 12:02 47.421899 -122.362384 68 24987ft 300kts
18-Sep-20 12:03 47.457479 -122.251763 60 24983ft 299kts
18-Sep-20 12:04 47.498459 -122.144389 60 24981ft 300kts
18-Sep-20 12:05 47.539370 -122.036655 60 24982ft 299kts
18-Sep-20 12:06 47.580072 -121.929221 60 24983ft 294kts
18-Sep-20 12:07 47.619466 -121.824560 61 24979ft 287kts
18-Sep-20 12:08 47.658513 -121.720487 60 24978ft 288kts
18-Sep-20 12:09 47.698125 -121.614622 60 24983ft 295kts
18-Sep-20 12:10 47.738174 -121.507070 60 24982ft 298kts
18-Sep-20 12:11 47.778449 -121.398478 60 24982ft 303kts
18-Sep-20 12:12 47.818910 -121.288934 61 24978ft 310kts
18-Sep-20 12:13 47.860061 -121.177058 61 24979ft 310kts
18-Sep-20 12:14 47.901550 -121.063775 61 24945ft 311kts
18-Sep-20 12:15 47.942802 -120.950654 61 24910ft 311kts
18-Sep-20 12:16 47.984010 -120.837158 61 24908ft 310kts
18-Sep-20 12:17 48.025166 -120.723329 61 24908ft 310kts
18-Sep-20 12:18 48.066052 -120.609752 61 24908ft 310kts
18-Sep-20 12:19 48.105917 -120.498536 61 24908ft 310kts
18-Sep-20 12:20 48.146517 -120.385002 62 24910ft 303kts
18-Sep-20 12:21 48.184948 -120.277057 68 24906ft 295kts
18-Sep-20 12:22 48.223595 -120.167415 68 24917ft 296kts
18-Sep-20 12:23 48.262249 -120.057966 70 24918ft 299kts
18-Sep-20 12:24 48.302018 -119.944207 69 24939ft 312kts
18-Sep-20 12:25 48.341410 -119.831221 61 24920ft 298kts
18-Sep-20 12:26 48.380232 -119.720228 62 24927ft 302kts
18-Sep-20 12:27 48.419392 -119.607192 62 24927ft 305kts
18-Sep-20 12:28 48.458886 -119.492704 62 24631ft 316kts
18-Sep-20 12:29 48.500247 -119.372269 62 23620ft 330kts
18-Sep-20 12:30 48.541635 -119.251199 62 22414ft 322kts
18-Sep-20 12:31 48.582368 -119.131459 62 21308ft 319kts
18-Sep-20 12:32 48.622584 -119.012681 62 20300ft 315kts
18-Sep-20 12:33 48.662353 -118.894710 62 19297ft 314kts
18-Sep-20 12:34 48.715378 -118.793421 70 18217ft 314kts
18-Sep-20 12:35 48.738654 -118.667116 67 17560ft 305kts
18-Sep-20 12:36 48.776498 -118.552977 62 17059ft 301kts
18-Sep-20 12:37 48.814066 -118.439527 62 16557ft 300kts
18-Sep-20 12:38 48.852270 -118.323625 63 15548ft 302kts
18-Sep-20 12:40 48.889853 -118.209094 63 14273ft 293kts
18-Sep-20 12:41 48.924694 -118.102424 63 13740ft 269kts
18-Sep-20 12:42 48.952165 -117.994960 100 12364ft 282kts
18-Sep-20 12:43 48.912043 -117.891022 122 10965ft 283kts
18-Sep-20 12:44 48.868761 -117.788651 122 9289ft 278kts
18-Sep-20 12:45 48.829120 -117.695293 122 7751ft 247kts
18-Sep-20 12:46 48.796348 -117.618342 122 7071ft 194kts
18-Sep-20 12:47 48.769459 -117.555424 122 7044ft 169kts
18-Sep-20 12:48 48.744489 -117.495935 121 5596ft 166kts
18-Sep-20 12:49 48.721126 -117.438129 121 4228ft 148kts
18-Sep-20 12:50 48.692322 -117.404097 151 4275ft 137kts
18-Sep-20 12:51 48.661888 -117.379908 160 4240ft 115kts
18-Sep-20 12:52 48.629329 -117.363417 160 4269ft 128kts
18-Sep-20 12:53 48.597167 -117.352301 229 3876ft 116kts
18-Sep-20 12:54 48.616005 -117.371817 15 3780ft 120kts
18-Sep-20 12:55 48.644897 -117.378812 335 3216ft 89kts
18-Sep-20 12:56 48.667590 -117.395584 333 2703ft 90kts
18-Sep-20 12:57 48.691601 -117.407587 349 2315ft 86kts
18-Sep-20 12:57 48.708666 -117.413217 348 2118ft 34kts
18-Sep-20 12:59 48.713895 -117.414547 351 2114ft 4kts
18-Sep-20 13:00 48.713856 -117.414418 196 2114ft 0kts
18-Sep-20 13:00 48.713856 -117.414418 196 2114ft 0kts
18-Sep-20 13:01 48.713856 -117.414418 196 2114ft 0kts
18-Sep-20 13:02 48.713856 -117.414418 196 2114ft 0kts
18-Sep-20 13:03 48.713856 -117.414418 196 2114ft 0kts
18-Sep-20 13:04 48.713856 -117.414418 196 2114ft 0kts
18-Sep-20 13:05 48.713856 -117.414418 196 2114ft 0kts
18-Sep-20 13:06 48.713856 -117.414418 196 2114ft 0kts
18-Sep-20 13:07 48.713856 -117.414418 196 2114ft 0kts
18-Sep-20 13:08 48.713856 -117.414418 196 2114ft 0kts
18-Sep-20 13:09 48.713856 -117.414418 196 2114ft 0kts
18-Sep-20 13:10 48.713856 -117.414418 196 2114ft 0kts
18-Sep-20 13:11 48.713856 -117.414418 196 2114ft 0kts

Navigation Log

Ident Type
Flight plan parsing failed, navigation log unavailable